sensor_id;sensor_type;location;lat;lon;timestamp;P1;durP1;ratioP1;P2;durP2;ratioP2
26620;SDS011;14253;44.840;10.444;2022-11-03T00:01:39;78.50;;;37.10;;
26620;SDS011;14253;44.840;10.444;2022-11-03T00:04:10;77.47;;;36.50;;
26620;SDS011;14253;44.840;10.444;2022-11-03T00:06:37;72.45;;;34.58;;
26620;SDS011;14253;44.840;10.444;2022-11-03T00:09:06;64.38;;;33.67;;
26620;SDS011;14253;44.840;10.444;2022-11-03T00:11:35;76.85;;;32.70;;
26620;SDS011;14253;44.840;10.444;2022-11-03T00:14:02;75.68;;;36.47;;
26620;SDS011;14253;44.840;10.444;2022-11-03T00:16:29;75.72;;;36.80;;
26620;SDS011;14253;44.840;10.444;2022-11-03T00:18:56;73.85;;;36.35;;
26620;SDS011;14253;44.840;10.444;2022-11-03T00:21:22;78.53;;;35.67;;
26620;SDS011;14253;44.840;10.444;2022-11-03T00:23:48;74.43;;;35.15;;
26620;SDS011;14253;44.840;10.444;2022-11-03T00:26:20;71.30;;;35.30;;
26620;SDS011;14253;44.840;10.444;2022-11-03T00:28:49;69.40;;;35.70;;
26620;SDS011;14253;44.840;10.444;2022-11-03T00:31:21;64.65;;;32.85;;
26620;SDS011;14253;44.840;10.444;2022-11-03T00:33:52;64.55;;;33.83;;
26620;SDS011;14253;44.840;10.444;2022-11-03T00:36:28;69.07;;;34.35;;
26620;SDS011;14253;44.840;10.444;2022-11-03T00:38:59;68.63;;;33.90;;
26620;SDS011;14253;44.840;10.444;2022-11-03T00:41:25;82.68;;;37.88;;
26620;SDS011;14253;44.840;10.444;2022-11-03T00:43:52;82.70;;;37.80;;
26620;SDS011;14253;44.840;10.444;2022-11-03T00:46:19;74.45;;;37.72;;
26620;SDS011;14253;44.840;10.444;2022-11-03T00:48:46;88.22;;;40.55;;
26620;SDS011;14253;44.840;10.444;2022-11-03T00:51:14;73.35;;;37.95;;
26620;SDS011;14253;44.840;10.444;2022-11-03T00:53:51;78.10;;;37.33;;
26620;SDS011;14253;44.840;10.444;2022-11-03T00:56:20;80.47;;;37.72;;
26620;SDS011;14253;44.840;10.444;2022-11-03T00:58:48;85.32;;;39.92;;
26620;SDS011;14253;44.840;10.444;2022-11-03T01:01:15;83.90;;;38.83;;
26620;SDS011;14253;44.840;10.444;2022-11-03T01:03:46;79.10;;;36.90;;
26620;SDS011;14253;44.840;10.444;2022-11-03T01:06:33;88.22;;;41.00;;
26620;SDS011;14253;44.840;10.444;2022-11-03T01:14:36;84.10;;;38.92;;
26620;SDS011;14253;44.840;10.444;2022-11-03T01:17:20;72.65;;;35.80;;
26620;SDS011;14253;44.840;10.444;2022-11-03T01:19:47;77.43;;;37.50;;
26620;SDS011;14253;44.840;10.444;2022-11-03T01:22:14;78.00;;;38.83;;
26620;SDS011;14253;44.840;10.444;2022-11-03T01:24:41;68.72;;;36.13;;
26620;SDS011;14253;44.840;10.444;2022-11-03T01:27:08;78.28;;;40.03;;
26620;SDS011;14253;44.840;10.444;2022-11-03T01:29:37;78.25;;;36.95;;
26620;SDS011;14253;44.840;10.444;2022-11-03T01:32:03;81.78;;;38.05;;
26620;SDS011;14253;44.840;10.444;2022-11-03T01:34:30;79.35;;;39.00;;
26620;SDS011;14253;44.840;10.444;2022-11-03T01:36:56;80.35;;;38.17;;
26620;SDS011;14253;44.840;10.444;2022-11-03T01:39:22;78.03;;;37.00;;
26620;SDS011;14253;44.840;10.444;2022-11-03T01:41:49;88.07;;;40.50;;
26620;SDS011;14253;44.840;10.444;2022-11-03T01:46:43;84.80;;;39.92;;
26620;SDS011;14253;44.840;10.444;2022-11-03T01:49:41;93.13;;;41.28;;
26620;SDS011;14253;44.840;10.444;2022-11-03T01:54:51;85.38;;;40.25;;
26620;SDS011;14253;44.840;10.444;2022-11-03T01:57:23;84.00;;;42.58;;
26620;SDS011;14253;44.840;10.444;2022-11-03T01:59:52;91.88;;;42.20;;
26620;SDS011;14253;44.840;10.444;2022-11-03T02:02:24;83.13;;;41.13;;
26620;SDS011;14253;44.840;10.444;2022-11-03T02:04:51;91.90;;;42.03;;
26620;SDS011;14253;44.840;10.444;2022-11-03T02:07:21;87.05;;;38.53;;
26620;SDS011;14253;44.840;10.444;2022-11-03T02:09:47;85.22;;;40.08;;
26620;SDS011;14253;44.840;10.444;2022-11-03T02:12:13;89.72;;;43.90;;
26620;SDS011;14253;44.840;10.444;2022-11-03T02:17:32;92.25;;;40.63;;
26620;SDS011;14253;44.840;10.444;2022-11-03T02:20:11;88.88;;;40.78;;
26620;SDS011;14253;44.840;10.444;2022-11-03T02:25:34;80.47;;;37.58;;
26620;SDS011;14253;44.840;10.444;2022-11-03T02:28:10;90.68;;;41.42;;
26620;SDS011;14253;44.840;10.444;2022-11-03T02:34:11;88.25;;;40.15;;
26620;SDS011;14253;44.840;10.444;2022-11-03T02:36:21;86.50;;;40.15;;
26620;SDS011;14253;44.840;10.444;2022-11-03T02:39:02;97.18;;;40.78;;
26620;SDS011;14253;44.840;10.444;2022-11-03T02:41:40;87.72;;;40.88;;
26620;SDS011;14253;44.840;10.444;2022-11-03T02:44:10;84.95;;;40.22;;
26620;SDS011;14253;44.840;10.444;2022-11-03T02:46:42;80.35;;;36.85;;
26620;SDS011;14253;44.840;10.444;2022-11-03T02:49:10;84.07;;;41.05;;
26620;SDS011;14253;44.840;10.444;2022-11-03T02:51:43;80.40;;;38.58;;
26620;SDS011;14253;44.840;10.444;2022-11-03T02:54:56;85.82;;;39.55;;
26620;SDS011;14253;44.840;10.444;2022-11-03T02:57:24;87.88;;;39.92;;
26620;SDS011;14253;44.840;10.444;2022-11-03T03:00:02;77.50;;;36.58;;
26620;SDS011;14253;44.840;10.444;2022-11-03T03:02:37;82.57;;;38.92;;
26620;SDS011;14253;44.840;10.444;2022-11-03T03:05:12;83.65;;;38.92;;
26620;SDS011;14253;44.840;10.444;2022-11-03T03:07:42;85.10;;;38.80;;
26620;SDS011;14253;44.840;10.444;2022-11-03T03:10:12;77.22;;;36.80;;
26620;SDS011;14253;44.840;10.444;2022-11-03T03:12:40;82.45;;;37.40;;
26620;SDS011;14253;44.840;10.444;2022-11-03T03:15:11;90.85;;;41.88;;
26620;SDS011;14253;44.840;10.444;2022-11-03T03:20:13;92.97;;;41.30;;
26620;SDS011;14253;44.840;10.444;2022-11-03T03:23:00;82.75;;;39.22;;
26620;SDS011;14253;44.840;10.444;2022-11-03T03:25:31;84.88;;;39.22;;
26620;SDS011;14253;44.840;10.444;2022-11-03T03:28:08;101.82;;;42.45;;
26620;SDS011;14253;44.840;10.444;2022-11-03T03:30:37;104.35;;;45.28;;
26620;SDS011;14253;44.840;10.444;2022-11-03T03:33:06;92.60;;;42.58;;
26620;SDS011;14253;44.840;10.444;2022-11-03T03:35:33;92.25;;;40.67;;
26620;SDS011;14253;44.840;10.444;2022-11-03T03:38:04;95.97;;;41.03;;
26620;SDS011;14253;44.840;10.444;2022-11-03T03:40:36;97.10;;;42.80;;
26620;SDS011;14253;44.840;10.444;2022-11-03T03:43:07;96.63;;;39.67;;
26620;SDS011;14253;44.840;10.444;2022-11-03T03:45:35;95.45;;;43.58;;
26620;SDS011;14253;44.840;10.444;2022-11-03T03:48:03;96.25;;;41.80;;
26620;SDS011;14253;44.840;10.444;2022-11-03T03:50:33;88.43;;;38.67;;
26620;SDS011;14253;44.840;10.444;2022-11-03T03:53:03;98.85;;;42.03;;
26620;SDS011;14253;44.840;10.444;2022-11-03T03:55:41;103.18;;;40.97;;
26620;SDS011;14253;44.840;10.444;2022-11-03T03:58:10;93.68;;;40.20;;
26620;SDS011;14253;44.840;10.444;2022-11-03T04:00:38;105.47;;;43.30;;
26620;SDS011;14253;44.840;10.444;2022-11-03T04:03:04;95.15;;;39.92;;
26620;SDS011;14253;44.840;10.444;2022-11-03T04:05:32;105.43;;;44.30;;
26620;SDS011;14253;44.840;10.444;2022-11-03T04:07:57;96.13;;;40.85;;
26620;SDS011;14253;44.840;10.444;2022-11-03T04:10:23;103.78;;;44.35;;
26620;SDS011;14253;44.840;10.444;2022-11-03T04:12:49;108.00;;;42.72;;
26620;SDS011;14253;44.840;10.444;2022-11-03T04:15:34;95.53;;;42.05;;
26620;SDS011;14253;44.840;10.444;2022-11-03T04:18:19;110.72;;;42.20;;
26620;SDS011;14253;44.840;10.444;2022-11-03T04:21:05;111.53;;;41.47;;
26620;SDS011;14253;44.840;10.444;2022-11-03T04:23:52;97.45;;;39.80;;
26620;SDS011;14253;44.840;10.444;2022-11-03T04:26:18;108.20;;;43.58;;
26620;SDS011;14253;44.840;10.444;2022-11-03T04:28:48;101.38;;;42.05;;
26620;SDS011;14253;44.840;10.444;2022-11-03T04:31:16;107.47;;;41.92;;
26620;SDS011;14253;44.840;10.444;2022-11-03T04:33:43;95.18;;;41.00;;
26620;SDS011;14253;44.840;10.444;2022-11-03T04:36:10;94.68;;;40.70;;
26620;SDS011;14253;44.840;10.444;2022-11-03T04:38:47;99.00;;;40.35;;
26620;SDS011;14253;44.840;10.444;2022-11-03T04:41:16;97.25;;;40.45;;
26620;SDS011;14253;44.840;10.444;2022-11-03T04:43:47;103.57;;;40.55;;
26620;SDS011;14253;44.840;10.444;2022-11-03T04:46:15;99.25;;;41.30;;
26620;SDS011;14253;44.840;10.444;2022-11-03T04:48:45;94.55;;;40.65;;
26620;SDS011;14253;44.840;10.444;2022-11-03T04:51:12;94.30;;;40.60;;
26620;SDS011;14253;44.840;10.444;2022-11-03T04:53:47;91.25;;;41.08;;
26620;SDS011;14253;44.840;10.444;2022-11-03T04:56:24;103.40;;;41.38;;
26620;SDS011;14253;44.840;10.444;2022-11-03T04:58:51;99.20;;;41.28;;
26620;SDS011;14253;44.840;10.444;2022-11-03T05:01:18;88.00;;;38.08;;
26620;SDS011;14253;44.840;10.444;2022-11-03T05:03:49;95.20;;;40.42;;
26620;SDS011;14253;44.840;10.444;2022-11-03T05:08:54;102.50;;;42.60;;
26620;SDS011;14253;44.840;10.444;2022-11-03T05:13:56;98.82;;;41.00;;
26620;SDS011;14253;44.840;10.444;2022-11-03T05:16:27;91.35;;;39.65;;
26620;SDS011;14253;44.840;10.444;2022-11-03T05:18:55;83.15;;;37.15;;
26620;SDS011;14253;44.840;10.444;2022-11-03T05:21:21;97.85;;;40.28;;
26620;SDS011;14253;44.840;10.444;2022-11-03T05:24:01;105.30;;;42.17;;
26620;SDS011;14253;44.840;10.444;2022-11-03T05:26:32;93.13;;;39.45;;
26620;SDS011;14253;44.840;10.444;2022-11-03T05:29:00;88.60;;;38.58;;
26620;SDS011;14253;44.840;10.444;2022-11-03T05:31:29;95.07;;;41.45;;
26620;SDS011;14253;44.840;10.444;2022-11-03T05:33:59;99.10;;;40.00;;
26620;SDS011;14253;44.840;10.444;2022-11-03T05:36:30;93.43;;;39.55;;
26620;SDS011;14253;44.840;10.444;2022-11-03T05:38:58;96.70;;;40.25;;
26620;SDS011;14253;44.840;10.444;2022-11-03T05:41:41;93.38;;;39.08;;
26620;SDS011;14253;44.840;10.444;2022-11-03T05:44:50;92.32;;;40.75;;
26620;SDS011;14253;44.840;10.444;2022-11-03T05:47:11;97.63;;;39.45;;
26620;SDS011;14253;44.840;10.444;2022-11-03T05:49:43;96.53;;;40.38;;
26620;SDS011;14253;44.840;10.444;2022-11-03T05:52:12;93.50;;;39.55;;
26620;SDS011;14253;44.840;10.444;2022-11-03T05:54:43;89.47;;;41.35;;
26620;SDS011;14253;44.840;10.444;2022-11-03T05:57:10;87.75;;;39.55;;
26620;SDS011;14253;44.840;10.444;2022-11-03T05:59:38;83.82;;;38.38;;
26620;SDS011;14253;44.840;10.444;2022-11-03T06:02:30;97.63;;;42.05;;
26620;SDS011;14253;44.840;10.444;2022-11-03T06:05:20;102.55;;;42.17;;
26620;SDS011;14253;44.840;10.444;2022-11-03T06:07:48;104.53;;;43.22;;
26620;SDS011;14253;44.840;10.444;2022-11-03T06:10:19;113.20;;;44.90;;
26620;SDS011;14253;44.840;10.444;2022-11-03T06:12:52;117.00;;;45.08;;
26620;SDS011;14253;44.840;10.444;2022-11-03T06:15:26;116.00;;;46.33;;
26620;SDS011;14253;44.840;10.444;2022-11-03T06:17:57;111.07;;;45.70;;
26620;SDS011;14253;44.840;10.444;2022-11-03T06:20:25;118.85;;;46.25;;
26620;SDS011;14253;44.840;10.444;2022-11-03T06:22:52;120.68;;;44.72;;
26620;SDS011;14253;44.840;10.444;2022-11-03T06:25:34;120.78;;;45.70;;
26620;SDS011;14253;44.840;10.444;2022-11-03T06:28:05;120.00;;;46.20;;
26620;SDS011;14253;44.840;10.444;2022-11-03T06:30:38;117.78;;;45.58;;
26620;SDS011;14253;44.840;10.444;2022-11-03T06:33:18;125.55;;;49.55;;
26620;SDS011;14253;44.840;10.444;2022-11-03T06:35:50;130.18;;;49.95;;
26620;SDS011;14253;44.840;10.444;2022-11-03T06:38:23;122.80;;;44.88;;
26620;SDS011;14253;44.840;10.444;2022-11-03T06:40:51;122.22;;;46.22;;
26620;SDS011;14253;44.840;10.444;2022-11-03T06:43:21;111.25;;;45.17;;
26620;SDS011;14253;44.840;10.444;2022-11-03T06:45:50;126.22;;;47.40;;
26620;SDS011;14253;44.840;10.444;2022-11-03T06:48:23;126.50;;;48.20;;
26620;SDS011;14253;44.840;10.444;2022-11-03T06:50:51;124.95;;;46.67;;
26620;SDS011;14253;44.840;10.444;2022-11-03T06:53:24;125.95;;;45.60;;
26620;SDS011;14253;44.840;10.444;2022-11-03T06:56:00;115.88;;;47.60;;
26620;SDS011;14253;44.840;10.444;2022-11-03T07:01:01;103.82;;;40.65;;
26620;SDS011;14253;44.840;10.444;2022-11-03T07:03:33;86.03;;;34.75;;
26620;SDS011;14253;44.840;10.444;2022-11-03T07:06:10;86.13;;;33.30;;
26620;SDS011;14253;44.840;10.444;2022-11-03T07:08:41;79.88;;;32.90;;
26620;SDS011;14253;44.840;10.444;2022-11-03T07:13:38;74.65;;;31.25;;
26620;SDS011;14253;44.840;10.444;2022-11-03T07:18:50;74.80;;;32.08;;
26620;SDS011;14253;44.840;10.444;2022-11-03T07:24:00;78.47;;;34.45;;
26620;SDS011;14253;44.840;10.444;2022-11-03T07:26:42;90.65;;;34.78;;
26620;SDS011;14253;44.840;10.444;2022-11-03T07:29:19;75.70;;;32.45;;
26620;SDS011;14253;44.840;10.444;2022-11-03T07:31:49;81.43;;;33.28;;
26620;SDS011;14253;44.840;10.444;2022-11-03T07:34:18;67.18;;;31.75;;
26620;SDS011;14253;44.840;10.444;2022-11-03T07:36:46;66.45;;;31.85;;
26620;SDS011;14253;44.840;10.444;2022-11-03T07:39:14;73.90;;;32.45;;
26620;SDS011;14253;44.840;10.444;2022-11-03T07:41:43;73.53;;;31.30;;
26620;SDS011;14253;44.840;10.444;2022-11-03T07:44:12;75.60;;;31.42;;
26620;SDS011;14253;44.840;10.444;2022-11-03T07:46:45;72.03;;;30.65;;
26620;SDS011;14253;44.840;10.444;2022-11-03T07:49:20;72.95;;;30.63;;
26620;SDS011;14253;44.840;10.444;2022-11-03T07:52:04;73.57;;;32.15;;
26620;SDS011;14253;44.840;10.444;2022-11-03T07:54:44;67.68;;;30.55;;
26620;SDS011;14253;44.840;10.444;2022-11-03T07:57:12;69.65;;;29.13;;
26620;SDS011;14253;44.840;10.444;2022-11-03T07:59:52;70.20;;;31.30;;
26620;SDS011;14253;44.840;10.444;2022-11-03T08:02:48;71.60;;;31.55;;
26620;SDS011;14253;44.840;10.444;2022-11-03T08:05:16;64.18;;;30.65;;
26620;SDS011;14253;44.840;10.444;2022-11-03T08:07:42;76.22;;;33.20;;
26620;SDS011;14253;44.840;10.444;2022-11-03T08:10:08;79.30;;;33.72;;
26620;SDS011;14253;44.840;10.444;2022-11-03T08:12:34;80.97;;;34.55;;
26620;SDS011;14253;44.840;10.444;2022-11-03T08:15:00;78.53;;;35.25;;
26620;SDS011;14253;44.840;10.444;2022-11-03T08:17:26;85.55;;;36.03;;
26620;SDS011;14253;44.840;10.444;2022-11-03T08:19:53;84.43;;;34.70;;
26620;SDS011;14253;44.840;10.444;2022-11-03T08:22:19;80.32;;;34.88;;
26620;SDS011;14253;44.840;10.444;2022-11-03T08:24:47;72.90;;;33.50;;
26620;SDS011;14253;44.840;10.444;2022-11-03T08:27:13;77.57;;;33.97;;
26620;SDS011;14253;44.840;10.444;2022-11-03T08:29:39;79.78;;;34.30;;
26620;SDS011;14253;44.840;10.444;2022-11-03T08:32:05;72.85;;;32.60;;
26620;SDS011;14253;44.840;10.444;2022-11-03T08:34:31;75.00;;;33.70;;
26620;SDS011;14253;44.840;10.444;2022-11-03T08:36:58;72.40;;;33.20;;
26620;SDS011;14253;44.840;10.444;2022-11-03T08:39:24;70.65;;;32.42;;
26620;SDS011;14253;44.840;10.444;2022-11-03T08:41:50;63.70;;;32.00;;
26620;SDS011;14253;44.840;10.444;2022-11-03T08:44:16;72.53;;;30.25;;
26620;SDS011;14253;44.840;10.444;2022-11-03T08:46:42;58.83;;;28.70;;
26620;SDS011;14253;44.840;10.444;2022-11-03T08:49:08;59.78;;;30.38;;
26620;SDS011;14253;44.840;10.444;2022-11-03T08:51:34;55.92;;;28.52;;
26620;SDS011;14253;44.840;10.444;2022-11-03T08:54:00;55.08;;;27.80;;
26620;SDS011;14253;44.840;10.444;2022-11-03T08:56:27;63.90;;;28.63;;
26620;SDS011;14253;44.840;10.444;2022-11-03T08:58:54;56.60;;;27.05;;
26620;SDS011;14253;44.840;10.444;2022-11-03T09:01:20;58.22;;;28.00;;
26620;SDS011;14253;44.840;10.444;2022-11-03T09:03:46;50.00;;;25.70;;
26620;SDS011;14253;44.840;10.444;2022-11-03T09:06:12;53.28;;;27.05;;
26620;SDS011;14253;44.840;10.444;2022-11-03T09:08:41;66.18;;;29.15;;
26620;SDS011;14253;44.840;10.444;2022-11-03T09:11:11;63.28;;;28.77;;
26620;SDS011;14253;44.840;10.444;2022-11-03T09:13:41;56.38;;;27.58;;
26620;SDS011;14253;44.840;10.444;2022-11-03T09:16:08;69.85;;;30.92;;
26620;SDS011;14253;44.840;10.444;2022-11-03T09:18:35;74.80;;;31.83;;
26620;SDS011;14253;44.840;10.444;2022-11-03T09:21:05;69.70;;;31.75;;
26620;SDS011;14253;44.840;10.444;2022-11-03T09:23:33;70.78;;;31.70;;
26620;SDS011;14253;44.840;10.444;2022-11-03T09:25:59;63.45;;;30.73;;
26620;SDS011;14253;44.840;10.444;2022-11-03T09:28:25;67.15;;;30.42;;
26620;SDS011;14253;44.840;10.444;2022-11-03T09:30:51;65.60;;;29.55;;
26620;SDS011;14253;44.840;10.444;2022-11-03T09:33:17;65.50;;;28.48;;
26620;SDS011;14253;44.840;10.444;2022-11-03T09:35:45;63.40;;;29.40;;
26620;SDS011;14253;44.840;10.444;2022-11-03T09:38:15;64.55;;;28.52;;
26620;SDS011;14253;44.840;10.444;2022-11-03T09:40:43;61.40;;;28.67;;
26620;SDS011;14253;44.840;10.444;2022-11-03T09:43:11;63.33;;;28.88;;
26620;SDS011;14253;44.840;10.444;2022-11-03T09:45:38;48.13;;;25.52;;
26620;SDS011;14253;44.840;10.444;2022-11-03T09:48:04;56.30;;;27.48;;
26620;SDS011;14253;44.840;10.444;2022-11-03T09:50:37;59.22;;;27.42;;
26620;SDS011;14253;44.840;10.444;2022-11-03T09:53:04;56.90;;;25.65;;
26620;SDS011;14253;44.840;10.444;2022-11-03T09:55:30;58.72;;;27.05;;
26620;SDS011;14253;44.840;10.444;2022-11-03T09:58:08;64.55;;;28.17;;
26620;SDS011;14253;44.840;10.444;2022-11-03T10:00:38;53.85;;;25.58;;
26620;SDS011;14253;44.840;10.444;2022-11-03T10:03:05;57.65;;;28.20;;
26620;SDS011;14253;44.840;10.444;2022-11-03T10:05:35;54.15;;;26.20;;
26620;SDS011;14253;44.840;10.444;2022-11-03T10:08:02;45.13;;;24.73;;
26620;SDS011;14253;44.840;10.444;2022-11-03T10:10:35;46.88;;;23.08;;
26620;SDS011;14253;44.840;10.444;2022-11-03T10:13:03;43.72;;;24.08;;
26620;SDS011;14253;44.840;10.444;2022-11-03T10:18:09;45.22;;;23.33;;
26620;SDS011;14253;44.840;10.444;2022-11-03T10:21:18;42.83;;;22.48;;
26620;SDS011;14253;44.840;10.444;2022-11-03T10:24:01;41.15;;;22.02;;
26620;SDS011;14253;44.840;10.444;2022-11-03T10:26:27;33.85;;;19.95;;
26620;SDS011;14253;44.840;10.444;2022-11-03T10:29:01;29.98;;;18.08;;
26620;SDS011;14253;44.840;10.444;2022-11-03T10:31:34;31.92;;;16.63;;
26620;SDS011;14253;44.840;10.444;2022-11-03T10:34:21;29.73;;;16.40;;
26620;SDS011;14253;44.840;10.444;2022-11-03T10:37:35;34.47;;;18.63;;
26620;SDS011;14253;44.840;10.444;2022-11-03T10:42:59;32.78;;;19.48;;
26620;SDS011;14253;44.840;10.444;2022-11-03T10:45:28;41.65;;;19.63;;
26620;SDS011;14253;44.840;10.444;2022-11-03T10:48:00;30.65;;;18.05;;
26620;SDS011;14253;44.840;10.444;2022-11-03T10:50:31;30.90;;;18.00;;
26620;SDS011;14253;44.840;10.444;2022-11-03T10:52:59;31.42;;;17.85;;
26620;SDS011;14253;44.840;10.444;2022-11-03T10:55:25;33.88;;;19.23;;
26620;SDS011;14253;44.840;10.444;2022-11-03T10:57:52;34.10;;;19.58;;
26620;SDS011;14253;44.840;10.444;2022-11-03T11:00:22;35.88;;;19.58;;
26620;SDS011;14253;44.840;10.444;2022-11-03T11:02:54;33.80;;;19.53;;
26620;SDS011;14253;44.840;10.444;2022-11-03T11:05:23;32.45;;;18.15;;
26620;SDS011;14253;44.840;10.444;2022-11-03T11:07:50;31.98;;;18.73;;
26620;SDS011;14253;44.840;10.444;2022-11-03T11:10:21;38.60;;;20.33;;
26620;SDS011;14253;44.840;10.444;2022-11-03T11:15:37;43.28;;;22.02;;
26620;SDS011;14253;44.840;10.444;2022-11-03T11:18:08;40.42;;;20.70;;
26620;SDS011;14253;44.840;10.444;2022-11-03T11:20:36;46.78;;;23.10;;
26620;SDS011;14253;44.840;10.444;2022-11-03T11:29:37;64.68;;;28.90;;
26620;SDS011;14253;44.840;10.444;2022-11-03T11:37:39;53.67;;;27.50;;
26620;SDS011;14253;44.840;10.444;2022-11-03T11:48:32;56.00;;;30.73;;
26620;SDS011;14253;44.840;10.444;2022-11-03T11:50:58;57.22;;;27.52;;
26620;SDS011;14253;44.840;10.444;2022-11-03T11:53:26;51.47;;;28.73;;
26620;SDS011;14253;44.840;10.444;2022-11-03T11:55:55;54.58;;;27.35;;
26620;SDS011;14253;44.840;10.444;2022-11-03T11:58:25;58.65;;;27.77;;
26620;SDS011;14253;44.840;10.444;2022-11-03T12:01:25;55.60;;;29.70;;
26620;SDS011;14253;44.840;10.444;2022-11-03T12:04:04;51.85;;;26.38;;
26620;SDS011;14253;44.840;10.444;2022-11-03T12:06:39;42.75;;;23.38;;
26620;SDS011;14253;44.840;10.444;2022-11-03T12:09:07;45.42;;;22.83;;
26620;SDS011;14253;44.840;10.444;2022-11-03T12:11:41;37.35;;;22.10;;
26620;SDS011;14253;44.840;10.444;2022-11-03T12:14:24;36.97;;;20.88;;
26620;SDS011;14253;44.840;10.444;2022-11-03T12:16:58;38.78;;;21.08;;
26620;SDS011;14253;44.840;10.444;2022-11-03T12:19:46;42.22;;;20.20;;
26620;SDS011;14253;44.840;10.444;2022-11-03T12:27:19;35.75;;;20.02;;
26620;SDS011;14253;44.840;10.444;2022-11-03T12:29:48;39.83;;;21.70;;
26620;SDS011;14253;44.840;10.444;2022-11-03T12:32:18;42.33;;;23.50;;
26620;SDS011;14253;44.840;10.444;2022-11-03T12:34:45;42.50;;;21.88;;
26620;SDS011;14253;44.840;10.444;2022-11-03T12:37:12;40.38;;;22.33;;
26620;SDS011;14253;44.840;10.444;2022-11-03T12:39:39;45.00;;;23.83;;
26620;SDS011;14253;44.840;10.444;2022-11-03T12:42:05;38.20;;;21.17;;
26620;SDS011;14253;44.840;10.444;2022-11-03T12:44:31;44.13;;;23.00;;
26620;SDS011;14253;44.840;10.444;2022-11-03T12:46:58;44.38;;;23.52;;
26620;SDS011;14253;44.840;10.444;2022-11-03T12:49:25;45.50;;;24.63;;
26620;SDS011;14253;44.840;10.444;2022-11-03T12:51:51;46.08;;;25.08;;
26620;SDS011;14253;44.840;10.444;2022-11-03T12:54:17;43.10;;;23.23;;
26620;SDS011;14253;44.840;10.444;2022-11-03T12:56:46;43.08;;;23.75;;
26620;SDS011;14253;44.840;10.444;2022-11-03T12:59:14;47.17;;;26.75;;
26620;SDS011;14253;44.840;10.444;2022-11-03T13:01:40;50.22;;;24.80;;
26620;SDS011;14253;44.840;10.444;2022-11-03T13:04:06;45.40;;;23.55;;
26620;SDS011;14253;44.840;10.444;2022-11-03T13:06:32;46.10;;;24.48;;
26620;SDS011;14253;44.840;10.444;2022-11-03T13:08:58;44.25;;;25.02;;
26620;SDS011;14253;44.840;10.444;2022-11-03T13:11:24;38.55;;;22.17;;
26620;SDS011;14253;44.840;10.444;2022-11-03T13:14:09;43.05;;;23.45;;
26620;SDS011;14253;44.840;10.444;2022-11-03T13:16:42;38.40;;;22.30;;
26620;SDS011;14253;44.840;10.444;2022-11-03T13:19:08;43.60;;;23.02;;
26620;SDS011;14253;44.840;10.444;2022-11-03T13:21:35;38.67;;;22.08;;
26620;SDS011;14253;44.840;10.444;2022-11-03T13:24:03;37.03;;;21.67;;
26620;SDS011;14253;44.840;10.444;2022-11-03T13:26:30;43.92;;;24.08;;
26620;SDS011;14253;44.840;10.444;2022-11-03T13:28:56;41.35;;;23.52;;
26620;SDS011;14253;44.840;10.444;2022-11-03T13:31:22;43.33;;;23.75;;
26620;SDS011;14253;44.840;10.444;2022-11-03T13:33:48;40.00;;;23.20;;
26620;SDS011;14253;44.840;10.444;2022-11-03T13:36:29;39.55;;;22.08;;
26620;SDS011;14253;44.840;10.444;2022-11-03T13:39:00;42.38;;;23.17;;
26620;SDS011;14253;44.840;10.444;2022-11-03T13:41:27;49.00;;;24.25;;
26620;SDS011;14253;44.840;10.444;2022-11-03T13:43:57;44.08;;;23.23;;
26620;SDS011;14253;44.840;10.444;2022-11-03T13:46:24;39.38;;;22.15;;
26620;SDS011;14253;44.840;10.444;2022-11-03T13:48:50;43.00;;;23.00;;
26620;SDS011;14253;44.840;10.444;2022-11-03T13:51:16;48.85;;;24.45;;
26620;SDS011;14253;44.840;10.444;2022-11-03T13:53:43;41.45;;;24.17;;
26620;SDS011;14253;44.840;10.444;2022-11-03T13:56:09;50.03;;;24.13;;
26620;SDS011;14253;44.840;10.444;2022-11-03T13:58:35;49.28;;;25.25;;
26620;SDS011;14253;44.840;10.444;2022-11-03T14:01:05;42.50;;;22.95;;
26620;SDS011;14253;44.840;10.444;2022-11-03T14:03:38;41.10;;;23.08;;
26620;SDS011;14253;44.840;10.444;2022-11-03T14:06:04;41.10;;;23.63;;
26620;SDS011;14253;44.840;10.444;2022-11-03T14:08:31;44.92;;;23.70;;
26620;SDS011;14253;44.840;10.444;2022-11-03T14:10:58;49.03;;;26.50;;
26620;SDS011;14253;44.840;10.444;2022-11-03T14:13:44;44.38;;;23.23;;
26620;SDS011;14253;44.840;10.444;2022-11-03T14:16:10;44.10;;;23.65;;
26620;SDS011;14253;44.840;10.444;2022-11-03T14:18:36;50.92;;;26.35;;
26620;SDS011;14253;44.840;10.444;2022-11-03T14:21:02;49.40;;;26.83;;
26620;SDS011;14253;44.840;10.444;2022-11-03T14:23:29;47.95;;;24.25;;
26620;SDS011;14253;44.840;10.444;2022-11-03T14:25:55;44.53;;;24.83;;
26620;SDS011;14253;44.840;10.444;2022-11-03T14:28:21;49.10;;;24.60;;
26620;SDS011;14253;44.840;10.444;2022-11-03T14:30:47;43.25;;;23.73;;
26620;SDS011;14253;44.840;10.444;2022-11-03T14:33:17;42.40;;;24.30;;
26620;SDS011;14253;44.840;10.444;2022-11-03T14:35:43;42.72;;;23.80;;
26620;SDS011;14253;44.840;10.444;2022-11-03T14:38:09;41.55;;;23.83;;
26620;SDS011;14253;44.840;10.444;2022-11-03T14:40:36;40.25;;;23.52;;
26620;SDS011;14253;44.840;10.444;2022-11-03T14:43:22;45.95;;;24.80;;
26620;SDS011;14253;44.840;10.444;2022-11-03T14:45:48;44.35;;;25.52;;
26620;SDS011;14253;44.840;10.444;2022-11-03T14:48:14;48.80;;;25.48;;
26620;SDS011;14253;44.840;10.444;2022-11-03T14:50:40;43.15;;;23.90;;
26620;SDS011;14253;44.840;10.444;2022-11-03T14:53:06;44.85;;;23.45;;
26620;SDS011;14253;44.840;10.444;2022-11-03T14:55:32;41.60;;;23.80;;
26620;SDS011;14253;44.840;10.444;2022-11-03T14:57:58;41.95;;;22.95;;
26620;SDS011;14253;44.840;10.444;2022-11-03T15:00:24;42.92;;;23.88;;
26620;SDS011;14253;44.840;10.444;2022-11-03T15:02:50;42.00;;;23.05;;
26620;SDS011;14253;44.840;10.444;2022-11-03T15:05:16;43.80;;;23.17;;
26620;SDS011;14253;44.840;10.444;2022-11-03T15:08:02;42.20;;;22.73;;
26620;SDS011;14253;44.840;10.444;2022-11-03T15:10:28;44.90;;;23.55;;
26620;SDS011;14253;44.840;10.444;2022-11-03T15:12:57;38.63;;;21.60;;
26620;SDS011;14253;44.840;10.444;2022-11-03T15:15:24;42.97;;;21.85;;
26620;SDS011;14253;44.840;10.444;2022-11-03T15:17:50;39.78;;;21.80;;
26620;SDS011;14253;44.840;10.444;2022-11-03T15:20:17;35.15;;;21.50;;
26620;SDS011;14253;44.840;10.444;2022-11-03T15:22:43;42.10;;;21.70;;
26620;SDS011;14253;44.840;10.444;2022-11-03T15:25:10;37.75;;;21.05;;
26620;SDS011;14253;44.840;10.444;2022-11-03T15:27:41;41.20;;;23.05;;
26620;SDS011;14253;44.840;10.444;2022-11-03T15:30:07;40.50;;;21.83;;
26620;SDS011;14253;44.840;10.444;2022-11-03T15:32:38;47.35;;;25.23;;
26620;SDS011;14253;44.840;10.444;2022-11-03T15:35:07;50.17;;;29.20;;
26620;SDS011;14253;44.840;10.444;2022-11-03T15:37:34;61.60;;;36.53;;
26620;SDS011;14253;44.840;10.444;2022-11-03T15:40:00;58.88;;;31.48;;